createdAt,value
2023-02-01T00:02:06.639Z,2.19
2023-02-01T00:04:33.193Z,2.21
2023-02-01T00:06:59.842Z,2.16
2023-02-01T00:09:26.423Z,2.37
2023-02-01T00:11:52.993Z,2.31
2023-02-01T00:14:19.556Z,2.35
2023-02-01T00:16:46.106Z,2.22
2023-02-01T00:19:14.934Z,2.28
2023-02-01T00:21:42.300Z,2.30
2023-02-01T00:24:11.126Z,2.24
2023-02-01T00:26:43.150Z,2.54
2023-02-01T00:29:15.874Z,2.11
2023-02-01T00:31:42.497Z,2.09
2023-02-01T00:34:12.631Z,2.15
2023-02-01T00:36:39.428Z,1.98
2023-02-01T00:39:05.989Z,2.14
2023-02-01T00:41:32.460Z,2.08
2023-02-01T00:43:58.963Z,1.90
2023-02-01T00:46:25.632Z,1.98
2023-02-01T00:48:52.395Z,2.26
2023-02-01T00:51:21.944Z,2.19
2023-02-01T00:53:48.549Z,1.90
2023-02-01T00:56:15.112Z,1.95
2023-02-01T00:58:45.294Z,2.11
2023-02-01T01:01:16.707Z,1.99
2023-02-01T01:03:45.906Z,1.90
2023-02-01T01:06:15.421Z,2.39
2023-02-01T01:08:42.656Z,2.07
2023-02-01T01:11:18.726Z,2.37
2023-02-01T01:13:48.002Z,2.09
2023-02-01T01:16:15.456Z,2.12
2023-02-01T01:18:42.614Z,2.05
2023-02-01T01:21:10.787Z,1.82
2023-02-01T01:23:37.373Z,2.08
2023-02-01T01:26:15.075Z,2.18
2023-02-01T01:28:41.763Z,2.16
2023-02-01T01:31:13.656Z,2.04
2023-02-01T01:33:40.532Z,2.08
2023-02-01T01:36:12.046Z,2.10
2023-02-01T01:38:40.242Z,2.08
2023-02-01T01:41:07.670Z,2.12
2023-02-01T01:43:55.713Z,2.03
2023-02-01T01:46:27.372Z,2.19
2023-02-01T01:49:17.666Z,2.26
2023-02-01T01:51:52.073Z,2.11
2023-02-01T01:54:29.751Z,2.29
2023-02-01T01:57:02.127Z,2.02
2023-02-01T01:59:30.630Z,2.13
2023-02-01T02:01:57.448Z,2.09
2023-02-01T02:04:25.545Z,2.14
2023-02-01T02:07:06.283Z,2.19
2023-02-01T02:09:32.969Z,1.96
2023-02-01T02:11:59.523Z,2.05
2023-02-01T02:14:27.600Z,2.17
2023-02-01T02:17:09.052Z,2.13
2023-02-01T02:19:38.672Z,2.17
2023-02-01T02:22:39.987Z,2.14
2023-02-01T02:25:16.079Z,2.26
2023-02-01T02:28:01.316Z,2.38
2023-02-01T02:30:43.819Z,2.22
2023-02-01T02:33:32.239Z,2.16
2023-02-01T02:36:06.653Z,2.21
2023-02-01T02:38:58.537Z,2.31
2023-02-01T02:41:53.525Z,2.63
2023-02-01T02:44:52.479Z,2.43
2023-02-01T02:47:28.549Z,2.31
2023-02-01T02:50:32.181Z,2.33
2023-02-01T02:53:54.070Z,2.29
2023-02-01T02:56:41.374Z,2.40
2023-02-01T02:59:30.677Z,2.48
2023-02-01T03:02:16.655Z,2.54
2023-02-01T03:04:43.498Z,2.41
2023-02-01T03:07:35.244Z,2.74
2023-02-01T03:10:08.919Z,2.65
2023-02-01T03:12:58.928Z,2.70
2023-02-01T03:15:50.035Z,2.75
2023-02-01T03:18:26.414Z,2.44
2023-02-01T03:20:56.269Z,2.42
2023-02-01T03:23:29.147Z,2.44
2023-02-01T03:25:58.593Z,2.78
2023-02-01T03:28:28.904Z,2.66
2023-02-01T03:30:55.868Z,2.63
2023-02-01T03:33:25.959Z,3.20
2023-02-01T03:36:19.239Z,2.67
2023-02-01T03:39:16.201Z,2.54
2023-02-01T03:41:56.425Z,2.45
2023-02-01T03:44:32.234Z,2.48
2023-02-01T03:47:10.043Z,2.50
2023-02-01T03:49:43.055Z,2.45
2023-02-01T03:52:23.256Z,2.57
2023-02-01T03:54:52.482Z,2.58
2023-02-01T03:57:24.545Z,2.52
2023-02-01T03:59:51.450Z,2.56
2023-02-01T04:02:18.024Z,2.70
2023-02-01T04:04:44.658Z,2.69
2023-02-01T04:07:13.990Z,2.66
2023-02-01T04:09:40.541Z,2.61
2023-02-01T04:12:07.328Z,2.51
2023-02-01T04:14:33.815Z,2.84
2023-02-01T04:17:00.342Z,2.75
2023-02-01T04:19:26.848Z,2.71
2023-02-01T04:21:53.387Z,2.62
2023-02-01T04:24:19.918Z,2.70
2023-02-01T04:26:46.509Z,2.97
2023-02-01T04:29:13.215Z,2.70
2023-02-01T04:31:40.003Z,2.61
2023-02-01T04:34:06.569Z,2.77
2023-02-01T04:36:33.088Z,2.60
2023-02-01T04:38:59.632Z,2.97
2023-02-01T04:41:26.140Z,2.93
2023-02-01T04:43:53.632Z,3.04
2023-02-01T04:46:20.253Z,2.75
2023-02-01T04:48:46.819Z,2.70
2023-02-01T04:51:13.721Z,2.67
2023-02-01T04:53:40.228Z,2.74
2023-02-01T04:56:07.371Z,2.68
2023-02-01T04:58:33.953Z,2.47
2023-02-01T05:01:05.388Z,2.54
2023-02-01T05:03:35.799Z,2.49
2023-02-01T05:06:04.967Z,2.56
2023-02-01T05:08:32.384Z,2.64
2023-02-01T05:10:59.835Z,2.70
2023-02-01T05:13:44.940Z,2.64
2023-02-01T05:16:11.746Z,2.72
2023-02-01T05:18:38.268Z,2.67
2023-02-01T05:21:04.968Z,2.54
2023-02-01T05:23:31.793Z,2.63
2023-02-01T05:26:02.399Z,2.55
2023-02-01T05:28:29.709Z,2.62
2023-02-01T05:30:56.544Z,2.58
2023-02-01T05:33:23.121Z,2.59
2023-02-01T05:35:51.393Z,2.69
2023-02-01T05:38:17.969Z,2.57
2023-02-01T05:40:50.517Z,2.92
2023-02-01T05:43:17.386Z,2.67
2023-02-01T05:45:44.034Z,2.68
2023-02-01T05:48:10.580Z,3.03
2023-02-01T05:50:37.118Z,2.70
2023-02-01T05:53:08.988Z,2.93
2023-02-01T05:55:35.694Z,2.75
2023-02-01T05:58:02.160Z,2.89
2023-02-01T06:00:28.740Z,3.16
2023-02-01T06:02:55.372Z,3.09
2023-02-01T06:05:22.352Z,2.87
2023-02-01T06:07:50.742Z,2.64
2023-02-01T06:10:18.156Z,2.83
2023-02-01T06:12:48.285Z,2.72
2023-02-01T06:15:19.226Z,2.74
2023-02-01T06:17:46.839Z,2.69
2023-02-01T06:20:15.771Z,2.64
2023-02-01T06:22:42.437Z,2.69
2023-02-01T06:25:11.335Z,2.64
2023-02-01T06:27:38.082Z,2.96
2023-02-01T06:30:06.553Z,3.16
2023-02-01T06:32:33.784Z,2.85
2023-02-01T06:35:01.522Z,2.78
2023-02-01T06:37:30.285Z,2.85
2023-02-01T06:39:56.841Z,2.63
2023-02-01T06:42:23.970Z,2.85
2023-02-01T06:44:50.452Z,3.07
2023-02-01T06:47:16.909Z,2.92
2023-02-01T06:49:43.617Z,2.64
2023-02-01T06:52:10.054Z,2.65
2023-02-01T06:54:38.260Z,2.94
2023-02-01T06:57:04.810Z,2.99
2023-02-01T06:59:31.280Z,3.04
2023-02-01T07:01:57.751Z,2.87
2023-02-01T07:04:24.256Z,2.75
2023-02-01T07:06:50.725Z,2.75
2023-02-01T07:09:17.159Z,2.78
2023-02-01T07:11:44.999Z,2.91
2023-02-01T07:14:12.330Z,2.82
2023-02-01T07:16:39.197Z,3.08
2023-02-01T07:19:05.882Z,2.86
2023-02-01T07:21:32.367Z,2.95
2023-02-01T07:23:59.658Z,2.74
2023-02-01T07:26:26.234Z,2.79
2023-02-01T07:28:52.943Z,2.93
2023-02-01T07:31:22.457Z,3.20
2023-02-01T07:33:52.566Z,2.86
2023-02-01T07:36:20.150Z,2.82
2023-02-01T07:38:50.192Z,2.80
2023-02-01T07:41:17.310Z,2.83
2023-02-01T07:43:43.983Z,3.04
2023-02-01T07:46:11.819Z,2.94
2023-02-01T07:48:39.071Z,2.77
2023-02-01T07:51:16.523Z,2.72
2023-02-01T07:53:44.018Z,2.77
2023-02-01T07:56:13.906Z,3.05
2023-02-01T07:58:40.720Z,2.78
2023-02-01T08:01:20.956Z,2.74
2023-02-01T08:04:00.013Z,2.90
2023-02-01T08:06:27.349Z,2.79
2023-02-01T08:08:55.096Z,3.21
2023-02-01T08:11:22.871Z,2.86
2023-02-01T08:13:50.030Z,2.79
2023-02-01T08:16:18.203Z,2.75
2023-02-01T08:18:45.360Z,3.07
2023-02-01T08:21:14.845Z,2.80
2023-02-01T08:23:42.838Z,2.84
2023-02-01T08:26:17.307Z,2.92
2023-02-01T08:28:56.651Z,2.74
2023-02-01T08:31:25.091Z,3.11
2023-02-01T08:33:57.723Z,2.68
2023-02-01T08:36:26.047Z,2.84
2023-02-01T08:38:53.209Z,2.86
2023-02-01T08:41:22.400Z,2.90
2023-02-01T08:43:49.102Z,2.87
2023-02-01T08:46:16.225Z,3.21
2023-02-01T08:48:42.906Z,3.25
2023-02-01T08:51:12.340Z,3.42
2023-02-01T08:53:42.193Z,3.24
2023-02-01T08:56:10.400Z,3.42
2023-02-01T08:58:37.023Z,3.84
2023-02-01T09:01:08.424Z,3.66
2023-02-01T09:03:35.155Z,3.65
2023-02-01T09:06:07.450Z,3.74
2023-02-01T09:08:34.846Z,3.75
2023-02-01T09:11:03.704Z,3.78
2023-02-01T09:13:30.649Z,4.27
2023-02-01T09:15:57.288Z,3.75
2023-02-01T09:18:23.945Z,3.55
2023-02-01T09:20:50.477Z,4.08
2023-02-01T09:23:16.973Z,3.65
2023-02-01T09:25:43.901Z,3.69
2023-02-01T09:28:10.380Z,3.50
2023-02-01T09:30:37.903Z,3.67
2023-02-01T09:33:05.529Z,3.35
2023-02-01T09:35:32.204Z,3.45
2023-02-01T09:37:58.662Z,3.29
2023-02-01T09:40:25.912Z,3.77
2023-02-01T09:43:06.509Z,4.07
2023-02-01T09:45:51.057Z,3.83
2023-02-01T09:48:22.405Z,3.82
2023-02-01T09:50:57.057Z,3.75
2023-02-01T09:53:34.775Z,3.84
2023-02-01T09:56:08.475Z,3.84
2023-02-01T09:58:40.294Z,3.86
2023-02-01T10:01:20.771Z,3.55
2023-02-01T10:03:47.542Z,4.06
2023-02-01T10:06:46.385Z,3.96
2023-02-01T10:09:32.189Z,3.61
2023-02-01T10:12:17.524Z,3.68
2023-02-01T10:14:52.760Z,3.69
2023-02-01T10:18:06.992Z,3.81
2023-02-01T10:21:02.460Z,3.72
2023-02-01T10:23:43.690Z,3.76
2023-02-01T10:26:28.242Z,3.78
2023-02-01T10:29:00.574Z,3.58
2023-02-01T10:31:31.700Z,3.58
2023-02-01T10:34:01.543Z,3.63
2023-02-01T10:36:41.560Z,3.74
2023-02-01T10:39:12.833Z,3.54
2023-02-01T10:41:41.425Z,3.81
2023-02-01T10:44:20.770Z,3.76
2023-02-01T10:46:47.349Z,3.13
2023-02-01T10:49:50.823Z,3.41
2023-02-01T10:52:45.090Z,3.34
2023-02-01T10:55:41.134Z,3.12
2023-02-01T10:58:17.244Z,3.60
2023-02-01T11:00:47.489Z,3.14
2023-02-01T11:03:34.861Z,3.17
2023-02-01T11:06:22.817Z,2.98
2023-02-01T11:08:52.797Z,2.96
2023-02-01T11:11:20.482Z,3.08
2023-02-01T11:13:54.867Z,3.33
2023-02-01T11:32:55.958Z,3.17
2023-02-01T11:35:22.968Z,3.34
2023-02-01T11:37:56.123Z,3.52
2023-02-01T11:40:23.019Z,3.75
2023-02-01T11:42:59.489Z,3.93
2023-02-01T11:45:35.446Z,4.09
2023-02-01T11:48:08.298Z,4.04
2023-02-01T11:51:07.546Z,4.20
2023-02-01T11:54:03.324Z,4.53
2023-02-01T11:56:56.630Z,4.84
2023-02-01T11:59:56.396Z,4.87
2023-02-01T12:02:51.067Z,5.02
2023-02-01T12:05:28.069Z,4.82
2023-02-01T12:08:13.435Z,4.76
2023-02-01T12:11:07.062Z,4.26
2023-02-01T12:13:56.403Z,4.35
2023-02-01T12:16:37.993Z,4.19
2023-02-01T12:19:26.115Z,4.10
2023-02-01T12:22:23.462Z,4.03
2023-02-01T12:25:12.331Z,3.98
2023-02-01T12:28:02.085Z,3.87
2023-02-01T12:30:56.692Z,4.21
2023-02-01T12:33:36.815Z,4.01
2023-02-01T12:36:13.751Z,3.88
2023-02-01T12:38:43.167Z,4.41
2023-02-01T12:41:17.222Z,4.54
2023-02-01T12:43:49.291Z,4.40
2023-02-01T12:46:21.000Z,4.51
2023-02-01T12:49:00.146Z,4.56
2023-02-01T12:51:30.877Z,4.55
2023-02-01T12:54:07.765Z,4.19
2023-02-01T12:56:41.379Z,4.51
2023-02-01T12:59:20.379Z,4.07
2023-02-01T13:01:57.613Z,4.46
2023-02-01T13:04:34.859Z,4.37
2023-02-01T13:07:10.634Z,4.33
2023-02-01T13:10:02.331Z,4.62
2023-02-01T13:12:39.922Z,4.15
2023-02-01T13:15:17.405Z,4.29
2023-02-01T13:17:47.151Z,4.07
2023-02-01T13:20:30.807Z,4.15
2023-02-01T13:23:24.927Z,4.92
2023-02-01T13:25:52.737Z,4.27
2023-02-01T13:28:46.747Z,4.01
2023-02-01T13:31:28.121Z,4.31
2023-02-01T13:34:09.855Z,4.21
2023-02-01T13:37:05.657Z,3.82
2023-02-01T13:39:47.197Z,4.20
2023-02-01T13:42:24.812Z,4.01
2023-02-01T13:44:57.187Z,4.25
2023-02-01T13:47:40.192Z,4.45
2023-02-01T13:50:21.841Z,3.64
2023-02-01T13:53:11.724Z,3.94
2023-02-01T13:55:57.129Z,4.13
2023-02-01T13:58:36.123Z,4.20
2023-02-01T14:01:21.527Z,3.98
2023-02-01T14:03:52.859Z,4.42
2023-02-01T14:06:43.292Z,4.82
2023-02-01T14:09:17.819Z,4.08
2023-02-01T14:11:58.133Z,3.81
2023-02-01T14:14:25.471Z,4.00
2023-02-01T14:16:54.896Z,3.78
2023-02-01T14:19:35.575Z,3.93
2023-02-01T14:22:25.111Z,3.96
2023-02-01T14:24:55.072Z,3.99
2023-02-01T14:27:25.274Z,4.03
2023-02-01T14:29:59.072Z,4.37
2023-02-01T14:32:31.803Z,4.04
2023-02-01T14:35:02.587Z,3.96
2023-02-01T14:37:32.502Z,3.87
2023-02-01T14:40:15.909Z,3.69
2023-02-01T14:42:42.406Z,3.83
2023-02-01T14:45:24.881Z,4.08
2023-02-01T14:48:15.609Z,3.91
2023-02-01T14:50:45.263Z,4.01
2023-02-01T14:53:18.016Z,3.89
2023-02-01T14:55:50.584Z,3.95
2023-02-01T14:58:38.004Z,4.41
2023-02-01T15:01:06.482Z,3.92
2023-02-01T15:03:44.256Z,3.81
2023-02-01T15:06:31.883Z,3.76
2023-02-01T15:09:03.698Z,4.06
2023-02-01T15:11:30.645Z,4.02
2023-02-01T15:13:58.176Z,4.13
2023-02-01T15:16:27.061Z,4.02
2023-02-01T15:19:10.534Z,3.88
2023-02-01T15:21:46.823Z,3.94
2023-02-01T15:24:23.390Z,3.75
2023-02-01T15:26:51.139Z,3.85
2023-02-01T15:29:18.625Z,4.33
2023-02-01T15:31:51.452Z,4.01
2023-02-01T15:34:19.547Z,3.95
2023-02-01T15:37:00.690Z,3.97
2023-02-01T15:39:31.706Z,4.06
2023-02-01T15:42:03.163Z,3.88
2023-02-01T15:44:32.837Z,4.12
2023-02-01T15:47:00.777Z,3.78
2023-02-01T15:49:34.039Z,3.71
2023-02-01T15:52:02.830Z,3.90
2023-02-01T15:54:47.605Z,4.14
2023-02-01T15:57:21.656Z,3.71
2023-02-01T15:59:48.498Z,3.56
2023-02-01T16:02:58.076Z,3.36
2023-02-01T16:05:36.495Z,3.50
2023-02-01T16:08:24.201Z,3.25
2023-02-01T16:10:54.426Z,3.15
2023-02-01T16:13:21.917Z,3.29
2023-02-01T16:15:49.377Z,3.31
2023-02-01T16:18:18.797Z,3.26
2023-02-01T16:20:46.385Z,3.24
2023-02-01T16:23:13.576Z,3.29
2023-02-01T16:25:40.967Z,3.21
2023-02-01T16:28:07.518Z,3.20
2023-02-01T16:30:34.234Z,3.49
2023-02-01T16:33:08.442Z,3.70
2023-02-01T16:35:37.411Z,3.45
2023-02-01T16:38:13.098Z,3.63
2023-02-01T16:40:40.744Z,3.39
2023-02-01T16:43:18.980Z,4.13
2023-02-01T16:45:50.397Z,3.83
2023-02-01T16:48:35.452Z,3.41
2023-02-01T16:51:12.183Z,3.60
2023-02-01T16:53:53.196Z,3.48
2023-02-01T16:56:23.873Z,3.68
2023-02-01T16:58:51.559Z,3.62
2023-02-01T17:01:19.899Z,3.72
2023-02-01T17:03:47.260Z,3.71
2023-02-01T17:06:17.949Z,3.82
2023-02-01T17:08:48.872Z,3.53
2023-02-01T17:11:15.433Z,3.45
2023-02-01T17:13:42.619Z,3.54
2023-02-01T17:16:30.273Z,3.64
2023-02-01T17:19:00.370Z,3.91
2023-02-01T17:21:29.349Z,3.75
2023-02-01T17:23:56.083Z,3.64
2023-02-01T17:26:22.706Z,3.72
2023-02-01T17:28:49.279Z,3.46
2023-02-01T17:31:17.132Z,3.83
2023-02-01T17:33:44.809Z,4.15
2023-02-01T17:36:14.832Z,3.61
2023-02-01T17:38:42.172Z,3.50
2023-02-01T17:41:11.978Z,3.67
2023-02-01T17:43:38.693Z,3.59
2023-02-01T17:46:12.738Z,3.98
2023-02-01T17:48:40.533Z,3.50
2023-02-01T17:51:17.225Z,3.67
2023-02-01T17:53:46.018Z,4.02
2023-02-01T17:56:15.464Z,3.70
2023-02-01T17:58:42.813Z,4.08
2023-02-01T18:01:14.612Z,3.72
2023-02-01T18:03:41.591Z,3.78
2023-02-01T18:06:14.631Z,3.77
2023-02-01T18:08:41.301Z,3.68
2023-02-01T18:11:19.341Z,3.65
2023-02-01T18:13:46.857Z,3.58
2023-02-01T18:16:34.655Z,3.84
2023-02-01T18:19:05.105Z,4.10
2023-02-01T18:21:42.222Z,3.22
2023-02-01T18:24:13.432Z,3.90
2023-02-01T18:26:40.428Z,3.49
2023-02-01T18:29:07.246Z,3.79
2023-02-01T18:31:35.440Z,3.36
2023-02-01T18:34:03.109Z,3.39
2023-02-01T18:36:30.587Z,3.44
2023-02-01T18:38:57.833Z,4.05
2023-02-01T18:41:26.157Z,4.11
2023-02-01T18:43:53.213Z,3.35
2023-02-01T18:46:21.868Z,3.60
2023-02-01T18:48:49.018Z,4.10
2023-02-01T18:51:20.333Z,4.18
2023-02-01T18:53:48.312Z,3.12
2023-02-01T18:56:18.061Z,3.18
2023-02-01T18:58:45.000Z,3.67
2023-02-01T19:01:17.345Z,3.34
2023-02-01T19:03:47.086Z,3.30
2023-02-01T19:06:20.209Z,3.37
2023-02-01T19:08:46.867Z,3.86
2023-02-01T19:11:13.481Z,4.63
2023-02-01T19:13:40.701Z,4.10
2023-02-01T19:16:09.961Z,4.44
2023-02-01T19:18:38.047Z,3.66
2023-02-01T19:21:13.752Z,3.94
2023-02-01T19:23:41.982Z,3.82
2023-02-01T19:26:17.421Z,3.89
2023-02-01T19:28:48.809Z,3.82
2023-02-01T19:31:16.428Z,3.41
2023-02-01T19:33:43.179Z,3.34
2023-02-01T19:36:10.886Z,3.67
2023-02-01T19:38:38.572Z,3.80
2023-02-01T19:41:05.736Z,4.21
2023-02-01T19:43:32.729Z,3.76
2023-02-01T19:45:59.578Z,3.64
2023-02-01T19:48:26.546Z,4.00
2023-02-01T19:50:54.062Z,3.89
2023-02-01T19:53:24.668Z,4.35
2023-02-01T19:55:51.152Z,3.49
2023-02-01T19:58:17.592Z,4.20
2023-02-01T20:00:43.184Z,3.47
2023-02-01T20:03:10.008Z,3.81
2023-02-01T20:05:36.584Z,3.76
2023-02-01T20:08:03.647Z,3.80
2023-02-01T20:10:30.249Z,3.69
2023-02-01T20:12:56.818Z,3.63
2023-02-01T20:15:26.886Z,3.78
2023-02-01T20:17:53.616Z,3.89
2023-02-01T20:20:20.127Z,3.77
2023-02-01T20:22:46.641Z,4.07
2023-02-01T20:25:13.405Z,4.22
2023-02-01T20:27:40.865Z,3.70
2023-02-01T20:30:08.223Z,4.02
2023-02-01T20:32:34.697Z,3.73
2023-02-01T20:35:01.064Z,3.88
2023-02-01T20:37:27.773Z,3.50
2023-02-01T20:39:54.506Z,3.78
2023-02-01T20:42:21.403Z,3.58
2023-02-01T20:44:48.377Z,3.83
2023-02-01T20:47:14.897Z,3.71
2023-02-01T20:49:41.823Z,3.85
2023-02-01T20:52:08.336Z,3.78
2023-02-01T20:54:36.634Z,3.88
2023-02-01T20:57:03.172Z,3.33
2023-02-01T20:59:29.996Z,3.78
2023-02-01T21:01:56.801Z,4.05
2023-02-01T21:04:27.237Z,3.17
2023-02-01T21:06:55.327Z,3.50
2023-02-01T21:09:23.114Z,3.61
2023-02-01T21:11:49.746Z,3.84
2023-02-01T21:14:16.474Z,4.18
2023-02-01T21:16:43.940Z,3.30
2023-02-01T21:19:10.619Z,3.19
2023-02-01T21:21:37.286Z,3.70
2023-02-01T21:24:04.600Z,3.33
2023-02-01T21:26:43.749Z,4.18
2023-02-01T21:29:13.535Z,3.79
2023-02-01T21:31:41.750Z,3.92
2023-02-01T21:34:09.498Z,3.31
2023-02-01T21:36:36.136Z,4.32
2023-02-01T21:39:05.708Z,4.18
2023-02-01T21:41:53.375Z,3.60
2023-02-01T21:44:20.261Z,4.14
2023-02-01T21:46:46.987Z,3.95
2023-02-01T21:49:13.614Z,3.42
2023-02-01T21:51:41.502Z,3.90
2023-02-01T21:54:09.683Z,3.97
2023-02-01T21:56:37.785Z,3.73
2023-02-01T21:59:04.678Z,3.63
2023-02-01T22:01:31.424Z,4.10
2023-02-01T22:03:58.251Z,4.12
2023-02-01T22:06:37.143Z,4.19
2023-02-01T22:09:05.088Z,3.98
2023-02-01T22:11:32.041Z,3.99
2023-02-01T22:13:58.839Z,3.33
2023-02-01T22:16:25.517Z,4.05
2023-02-01T22:18:53.611Z,3.88
2023-02-01T22:21:21.797Z,3.16
2023-02-01T22:23:56.042Z,3.57
2023-02-01T22:26:23.044Z,3.93
2023-02-01T22:28:49.934Z,4.13
2023-02-01T22:31:17.284Z,3.66
2023-02-01T22:33:45.958Z,3.90
2023-02-01T22:36:15.304Z,3.78
2023-02-01T22:38:41.767Z,3.82
2023-02-01T22:41:08.555Z,3.28
2023-02-01T22:43:35.520Z,3.93
2023-02-01T22:46:04.317Z,3.83
2023-02-01T22:48:34.146Z,4.28
2023-02-01T22:51:02.168Z,3.93
2023-02-01T22:53:30.275Z,3.46
2023-02-01T22:56:17.009Z,3.64
2023-02-01T22:58:43.542Z,3.54
2023-02-01T23:17:56.870Z,3.09
2023-02-01T23:20:24.440Z,3.35
2023-02-01T23:22:50.947Z,3.15
2023-02-01T23:25:18.745Z,3.23
2023-02-01T23:27:47.204Z,2.81
2023-02-01T23:30:15.259Z,3.42
2023-02-01T23:32:43.032Z,3.25
2023-02-01T23:35:09.622Z,3.70
2023-02-01T23:37:36.088Z,3.63
2023-02-01T23:40:02.552Z,3.84
2023-02-01T23:42:29.071Z,3.54
2023-02-01T23:44:55.557Z,3.31
2023-02-01T23:47:21.939Z,3.48
2023-02-01T23:49:48.477Z,3.48
2023-02-01T23:52:15.072Z,3.44
2023-02-01T23:54:41.615Z,3.37
2023-02-01T23:57:08.523Z,3.61
2023-02-01T23:59:35.406Z,3.10
